Main page
METAR-TAF:

METAR-TAF

Airports :

Haugesund Airport. Karmøy

Haugesund, Norway

latitude: 59-21N, longitude: 005-13E, elevation: 2 m

Current weather observation

The report was made 41 minutes ago, at 22:50 UTC
Wind 11 kt from the East
Temperature 2°C
Humidity 64%
Pressure 1005 hPa
Visibility 10 km or more

METAR: ENHD 042250Z AUTO 08011KT 9999 NCD 02/M04 Q1005

Time: 00:31 (23:31 UTC)

Forecast

The report was made 6 hours and 31 minutes ago, at 17:00 UTC
Forecast valid from 04 at 18 UTC to 04 at 21 UTC
Wind 18 kt from the East
Visibility 10 km or more
Few clouds at a height of 2500 ft
Scattered clouds at a height of 6000 ft

TAF: ENHD 041700Z 0418/0421 10018KT 9999 FEW025 SCT060

Weather observations and forecasts of more than 4000 airports (METAR and TAF reports).

The available stations are represented by yellow and red dots on the map.

Hover mouse over dot to see the name of the station.

Then click to see weather observations and forecasts.

To change the map : click on the green buttons with a black cross to zoom in, on the green button with a dash to zoom out, or on the green arrows for adjacent maps.


METAR-TAF: